createdAt,value
2024-01-15T00:01:31.804Z,0.05
2024-01-15T00:03:58.873Z,0.10
2024-01-15T00:06:25.913Z,0.19
2024-01-15T00:08:52.815Z,0.35
2024-01-15T00:11:19.722Z,0.19
2024-01-15T00:13:46.633Z,0.09
2024-01-15T00:16:13.732Z,0.09
2024-01-15T00:18:40.772Z,0.24
2024-01-15T00:21:07.704Z,0.18
2024-01-15T00:23:34.953Z,0.05
2024-01-15T00:26:02.025Z,0.00
2024-01-15T00:28:31.143Z,-0.01
2024-01-15T00:30:58.124Z,-0.07
2024-01-15T00:33:26.432Z,0.05
2024-01-15T00:35:53.528Z,-0.08
2024-01-15T00:38:22.585Z,0.01
2024-01-15T00:40:49.739Z,-0.02
2024-01-15T00:43:20.396Z,0.01
2024-01-15T00:45:47.681Z,0.11
2024-01-15T00:48:14.829Z,0.16
2024-01-15T00:50:41.791Z,-0.01
2024-01-15T00:53:08.678Z,-0.05
2024-01-15T00:55:35.665Z,-0.04
2024-01-15T00:58:02.673Z,-0.21
2024-01-15T01:00:30.932Z,-0.20
2024-01-15T01:02:57.899Z,-0.24
2024-01-15T01:05:25.575Z,-0.28
2024-01-15T01:07:52.534Z,-0.19
2024-01-15T01:10:19.688Z,-0.25
2024-01-15T01:12:46.697Z,-0.28
2024-01-15T01:15:13.739Z,-0.33
2024-01-15T01:17:41.209Z,-0.47
2024-01-15T01:20:10.827Z,-0.42
2024-01-15T01:22:38.065Z,-0.46
2024-01-15T01:25:05.853Z,-0.43
2024-01-15T01:27:33.027Z,-0.42
2024-01-15T01:30:00.054Z,-0.45
2024-01-15T01:32:27.178Z,-0.37
2024-01-15T01:34:54.353Z,-0.43
2024-01-15T01:37:22.292Z,-0.47
2024-01-15T01:39:49.491Z,-0.49
2024-01-15T01:42:16.877Z,-0.50
2024-01-15T01:44:44.350Z,-0.45
2024-01-15T01:47:11.998Z,-0.48
2024-01-15T01:49:39.673Z,-0.45
2024-01-15T01:52:07.864Z,-0.47
2024-01-15T01:54:37.101Z,-0.53
2024-01-15T01:57:05.766Z,-0.49
2024-01-15T01:59:33.488Z,-0.47
2024-01-15T02:02:02.447Z,-0.44
2024-01-15T02:04:29.491Z,-0.42
2024-01-15T02:06:56.503Z,-0.31
2024-01-15T02:09:23.575Z,-0.39
2024-01-15T02:11:51.620Z,-0.35
2024-01-15T02:14:19.187Z,-0.38
2024-01-15T02:16:46.118Z,-0.38
2024-01-15T02:19:18.435Z,-0.39
2024-01-15T02:21:46.166Z,-0.43
2024-01-15T02:24:13.289Z,-0.41
2024-01-15T02:26:40.598Z,-0.37
2024-01-15T02:29:10.056Z,-0.35
2024-01-15T02:31:38.039Z,-0.37
2024-01-15T02:34:05.657Z,-0.38
2024-01-15T02:36:33.025Z,-0.39
2024-01-15T02:39:00.062Z,-0.27
2024-01-15T02:41:27.363Z,-0.35
2024-01-15T02:43:54.246Z,-0.38
2024-01-15T02:46:21.287Z,-0.35
2024-01-15T02:48:48.313Z,-0.32
2024-01-15T02:51:15.686Z,-0.37
2024-01-15T02:53:42.683Z,-0.45
2024-01-15T02:56:09.732Z,-0.34
2024-01-15T02:58:36.603Z,-0.28
2024-01-15T03:01:04.000Z,-0.37
2024-01-15T03:03:31.422Z,-0.39
2024-01-15T03:05:58.532Z,-0.41
2024-01-15T03:08:28.384Z,-0.29
2024-01-15T03:10:55.521Z,-0.30
2024-01-15T03:13:23.501Z,-0.03
2024-01-15T03:15:50.584Z,-0.08
2024-01-15T03:18:19.999Z,-0.13
2024-01-15T03:20:46.930Z,-0.23
2024-01-15T03:23:13.899Z,-0.19
2024-01-15T03:25:40.893Z,-0.17
2024-01-15T03:28:07.806Z,-0.25
2024-01-15T03:30:34.888Z,-0.25
2024-01-15T03:33:02.935Z,-0.29
2024-01-15T03:35:32.215Z,-0.30
2024-01-15T03:38:00.203Z,-0.16
2024-01-15T03:40:28.739Z,-0.29
2024-01-15T03:42:55.765Z,-0.26
2024-01-15T03:45:22.807Z,-0.18
2024-01-15T03:47:50.283Z,-0.17
2024-01-15T03:50:17.260Z,-0.24
2024-01-15T03:52:46.335Z,-0.13
2024-01-15T03:55:13.591Z,-0.09
2024-01-15T03:57:40.847Z,-0.08
2024-01-15T04:00:11.071Z,-0.01
2024-01-15T04:02:37.955Z,-0.01
2024-01-15T04:05:06.506Z,0.05
2024-01-15T04:07:33.516Z,0.11
2024-01-15T04:10:01.004Z,-0.11
2024-01-15T04:12:29.757Z,0.29
2024-01-15T04:14:56.728Z,0.54
2024-01-15T04:17:23.801Z,0.24
2024-01-15T04:19:50.809Z,0.17
2024-01-15T04:22:17.961Z,0.08
2024-01-15T04:24:45.094Z,0.11
2024-01-15T04:27:12.046Z,0.08
2024-01-15T04:29:41.691Z,0.11
2024-01-15T04:32:09.019Z,0.13
2024-01-15T04:34:36.111Z,0.18
2024-01-15T04:37:03.251Z,0.04
2024-01-15T04:39:30.750Z,0.11
2024-01-15T04:41:57.706Z,0.15
2024-01-15T04:44:24.591Z,0.14
2024-01-15T04:46:51.420Z,0.09
2024-01-15T04:49:21.674Z,0.04
2024-01-15T04:51:48.732Z,0.01
2024-01-15T04:54:19.393Z,-0.08
2024-01-15T04:56:46.405Z,-0.12
2024-01-15T04:59:13.708Z,-0.10
2024-01-15T05:01:40.626Z,-0.06
2024-01-15T05:04:07.583Z,-0.11
2024-01-15T05:06:34.927Z,0.05
2024-01-15T05:09:01.889Z,0.10
2024-01-15T05:11:28.899Z,0.18
2024-01-15T05:13:55.854Z,0.06
2024-01-15T05:16:23.022Z,-0.09
2024-01-15T05:18:50.049Z,-0.04
2024-01-15T05:21:17.069Z,-0.14
2024-01-15T05:23:43.993Z,-0.13
2024-01-15T05:26:10.856Z,-0.19
2024-01-15T05:28:37.750Z,-0.29
2024-01-15T05:31:05.612Z,-0.48
2024-01-15T05:33:32.744Z,-0.52
2024-01-15T05:36:00.354Z,-0.53
2024-01-15T05:38:27.433Z,-0.51
2024-01-15T05:40:54.434Z,-0.45
2024-01-15T05:43:21.307Z,-0.38
2024-01-15T05:45:48.594Z,-0.28
2024-01-15T05:48:15.783Z,-0.28
2024-01-15T05:50:43.074Z,-0.22
2024-01-15T05:53:09.922Z,-0.15
2024-01-15T05:55:38.523Z,-0.11
2024-01-15T05:58:05.771Z,-0.02
2024-01-15T06:00:34.485Z,-0.07
2024-01-15T06:03:01.462Z,0.00
2024-01-15T06:05:28.531Z,-0.10
2024-01-15T06:07:55.451Z,-0.15
2024-01-15T06:10:22.327Z,-0.17
2024-01-15T06:12:49.333Z,-0.14
2024-01-15T06:15:16.331Z,-0.06
2024-01-15T06:17:43.236Z,-0.12
2024-01-15T06:20:10.639Z,-0.15
2024-01-15T06:22:37.822Z,-0.11
2024-01-15T06:25:05.130Z,-0.07
2024-01-15T06:27:32.021Z,-0.02
2024-01-15T06:29:59.053Z,0.00
2024-01-15T06:32:26.047Z,0.03
2024-01-15T06:34:52.963Z,0.02
2024-01-15T06:37:21.522Z,0.05
2024-01-15T06:39:48.871Z,0.09
2024-01-15T06:42:15.887Z,0.06
2024-01-15T06:44:42.753Z,0.01
2024-01-15T06:47:09.701Z,-0.02
2024-01-15T06:49:36.704Z,0.05
2024-01-15T06:52:03.782Z,0.05
2024-01-15T06:54:30.864Z,0.01
2024-01-15T06:56:57.981Z,-0.05
2024-01-15T06:59:24.897Z,0.03
2024-01-15T07:01:51.806Z,-0.01
2024-01-15T07:04:19.308Z,-0.01
2024-01-15T07:06:46.373Z,-0.06
2024-01-15T07:09:13.341Z,-0.27
2024-01-15T07:11:40.222Z,-0.35
2024-01-15T07:14:07.073Z,-0.40
2024-01-15T07:16:37.556Z,-0.39
2024-01-15T07:19:06.211Z,-0.38
2024-01-15T07:21:33.266Z,-0.38
2024-01-15T07:24:00.260Z,-0.37
2024-01-15T07:26:27.426Z,-0.39
2024-01-15T07:28:54.355Z,-0.43
2024-01-15T07:31:21.321Z,-0.43
2024-01-15T07:33:48.395Z,-0.47
2024-01-15T07:36:16.218Z,-0.60
2024-01-15T07:38:43.124Z,-0.60
2024-01-15T07:41:10.015Z,-0.56
2024-01-15T07:43:36.867Z,-0.55
2024-01-15T07:46:04.111Z,-0.54
2024-01-15T07:48:31.342Z,-0.58
2024-01-15T07:50:58.290Z,-0.64
2024-01-15T07:53:25.195Z,-0.64
2024-01-15T07:55:52.082Z,-0.58
2024-01-15T07:58:19.097Z,-0.55
2024-01-15T08:00:46.177Z,-0.49
2024-01-15T08:03:14.376Z,-0.42
2024-01-15T08:05:41.504Z,-0.32
2024-01-15T08:08:08.388Z,-0.27
2024-01-15T08:10:35.300Z,-0.12
2024-01-15T08:13:02.197Z,-0.05
2024-01-15T08:15:31.554Z,-0.05
2024-01-15T08:17:59.931Z,-0.05
2024-01-15T08:20:27.298Z,-0.02
2024-01-15T08:22:54.451Z,-0.06
2024-01-15T08:25:21.324Z,-0.06
2024-01-15T08:27:48.209Z,-0.02
2024-01-15T08:30:15.740Z,0.02
2024-01-15T08:32:44.106Z,0.09
2024-01-15T08:35:11.778Z,0.09
2024-01-15T08:37:39.758Z,0.11
2024-01-15T08:40:07.038Z,0.15
2024-01-15T08:42:34.003Z,0.18
2024-01-15T08:45:00.882Z,0.19
2024-01-15T08:47:27.815Z,0.23
2024-01-15T08:49:55.511Z,0.18
2024-01-15T08:52:22.414Z,0.19
2024-01-15T08:54:49.546Z,0.17
2024-01-15T08:57:16.563Z,0.16
2024-01-15T08:59:43.511Z,0.17
2024-01-15T09:02:10.383Z,0.18
2024-01-15T09:04:37.369Z,0.20
2024-01-15T09:07:04.363Z,0.12
2024-01-15T09:09:31.223Z,0.10
2024-01-15T09:11:58.256Z,0.08
2024-01-15T09:14:33.391Z,0.06
2024-01-15T09:17:06.094Z,0.05
2024-01-15T09:19:33.350Z,0.09
2024-01-15T09:22:00.820Z,0.03
2024-01-15T09:24:28.940Z,0.07
2024-01-15T09:26:56.623Z,0.02
2024-01-15T09:29:25.544Z,0.11
2024-01-15T09:31:53.176Z,0.11
2024-01-15T09:34:20.624Z,0.21
2024-01-15T09:36:47.853Z,0.26
2024-01-15T09:39:14.866Z,0.28
2024-01-15T09:41:41.874Z,0.32
2024-01-15T09:44:09.218Z,0.37
2024-01-15T09:46:36.604Z,0.44
2024-01-15T09:49:03.671Z,0.43
2024-01-15T09:51:33.833Z,0.45
2024-01-15T09:54:00.756Z,0.45
2024-01-15T09:56:27.644Z,0.45
2024-01-15T09:58:55.138Z,0.49
2024-01-15T10:01:22.477Z,0.52
2024-01-15T10:03:49.564Z,0.52
2024-01-15T10:06:22.818Z,0.51
2024-01-15T10:08:52.321Z,0.56
2024-01-15T10:11:19.452Z,0.59
2024-01-15T10:13:47.726Z,0.68
2024-01-15T10:16:15.508Z,0.63
2024-01-15T10:18:43.058Z,0.57
2024-01-15T10:21:09.960Z,0.59
2024-01-15T10:23:37.573Z,0.58
2024-01-15T10:26:04.894Z,0.62
2024-01-15T10:28:32.905Z,0.57
2024-01-15T10:31:01.042Z,0.54
2024-01-15T10:33:28.672Z,0.57
2024-01-15T10:36:00.340Z,0.58
2024-01-15T10:38:27.998Z,0.55
2024-01-15T10:40:56.280Z,0.56
2024-01-15T10:43:27.191Z,0.55
2024-01-15T10:45:56.671Z,0.51
2024-01-15T10:48:24.513Z,0.50
2024-01-15T10:50:51.484Z,0.54
2024-01-15T10:53:18.677Z,0.58
2024-01-15T10:55:47.781Z,0.69
2024-01-15T10:58:16.058Z,0.64
2024-01-15T11:00:43.044Z,0.71
2024-01-15T11:03:10.163Z,0.79
2024-01-15T11:05:42.262Z,0.80
2024-01-15T11:08:10.308Z,0.83
2024-01-15T11:10:51.131Z,0.94
2024-01-15T11:13:24.857Z,1.02
2024-01-15T11:16:07.874Z,1.00
2024-01-15T11:18:42.740Z,0.98
2024-01-15T11:21:18.534Z,0.95
2024-01-15T11:23:54.008Z,0.90
2024-01-15T11:26:35.127Z,0.97
2024-01-15T11:29:04.840Z,0.96
2024-01-15T11:31:52.089Z,0.93
2024-01-15T11:34:19.236Z,0.89
2024-01-15T11:36:52.340Z,0.82
2024-01-15T11:39:28.560Z,0.84
2024-01-15T11:42:00.856Z,0.90
2024-01-15T11:44:28.258Z,0.83
2024-01-15T11:46:59.997Z,0.80
2024-01-15T11:50:03.745Z,0.80
2024-01-15T11:52:39.134Z,0.82
2024-01-15T11:55:15.315Z,0.83
2024-01-15T11:57:55.867Z,0.73
2024-01-15T12:00:24.795Z,0.74
2024-01-15T12:02:52.418Z,0.78
2024-01-15T12:05:20.617Z,0.77
2024-01-15T12:07:49.207Z,0.66
2024-01-15T12:10:20.242Z,0.39
2024-01-15T12:13:15.728Z,0.28
2024-01-15T12:15:44.771Z,0.18
2024-01-15T12:18:13.957Z,0.15
2024-01-15T12:20:41.183Z,0.18
2024-01-15T12:23:09.113Z,0.11
2024-01-15T12:25:37.576Z,0.10
2024-01-15T12:28:04.750Z,0.09
2024-01-15T12:30:33.373Z,0.11
2024-01-15T12:33:05.364Z,0.08
2024-01-15T12:35:32.657Z,0.03
2024-01-15T12:38:01.924Z,0.06
2024-01-15T12:40:29.115Z,0.05
2024-01-15T12:42:56.583Z,0.05
2024-01-15T12:45:23.597Z,0.07
2024-01-15T12:47:52.509Z,0.04
2024-01-15T12:50:20.937Z,0.01
2024-01-15T12:52:48.885Z,0.02
2024-01-15T12:55:16.689Z,-0.01
2024-01-15T12:57:44.081Z,0.05
2024-01-15T13:00:15.270Z,0.09
2024-01-15T13:02:44.189Z,0.09
2024-01-15T13:05:15.735Z,0.14
2024-01-15T13:07:44.401Z,0.08
2024-01-15T13:10:12.052Z,0.15
2024-01-15T13:12:39.963Z,0.13
2024-01-15T13:15:14.137Z,0.07
2024-01-15T13:17:42.838Z,0.11
2024-01-15T13:20:10.805Z,0.06
2024-01-15T13:22:40.629Z,0.05
2024-01-15T13:25:09.696Z,0.04
2024-01-15T13:27:39.572Z,-0.01
2024-01-15T13:30:09.464Z,0.05
2024-01-15T13:32:37.179Z,0.06
2024-01-15T13:35:07.130Z,0.03
2024-01-15T13:37:34.359Z,0.03
2024-01-15T13:40:01.469Z,0.08
2024-01-15T13:42:28.889Z,0.04
2024-01-15T13:44:56.186Z,0.11
2024-01-15T13:47:23.151Z,0.11
2024-01-15T13:49:50.898Z,0.11
2024-01-15T13:52:17.966Z,0.03
2024-01-15T13:54:49.661Z,0.02
2024-01-15T13:57:19.119Z,-0.04
2024-01-15T13:59:46.687Z,-0.02
2024-01-15T14:02:15.723Z,-0.04
2024-01-15T14:04:44.861Z,-0.08
2024-01-15T14:07:12.258Z,-0.02
2024-01-15T14:09:39.347Z,-0.03
2024-01-15T14:12:07.765Z,-0.04
2024-01-15T14:14:36.198Z,-0.08
2024-01-15T14:17:06.606Z,-0.09
2024-01-15T14:19:37.316Z,-0.04
2024-01-15T14:22:07.728Z,-0.07
2024-01-15T14:24:34.746Z,-0.12
2024-01-15T14:27:01.791Z,-0.12
2024-01-15T14:29:28.663Z,-0.14
2024-01-15T14:31:55.796Z,-0.13
2024-01-15T14:34:25.486Z,-0.17
2024-01-15T14:36:55.621Z,-0.15
2024-01-15T14:39:23.836Z,-0.19
2024-01-15T14:41:51.213Z,-0.13
2024-01-15T14:44:18.319Z,-0.11
2024-01-15T14:46:45.208Z,-0.10
2024-01-15T14:49:12.257Z,-0.11
2024-01-15T14:51:39.173Z,-0.13
2024-01-15T14:54:06.253Z,-0.09
2024-01-15T14:56:33.762Z,-0.13
2024-01-15T14:59:00.641Z,-0.09
2024-01-15T15:01:27.540Z,-0.18
2024-01-15T15:03:54.583Z,-0.17
2024-01-15T15:06:22.779Z,-0.17
2024-01-15T15:08:49.767Z,-0.19
2024-01-15T15:11:16.625Z,-0.15
2024-01-15T15:13:45.973Z,-0.14
2024-01-15T15:16:14.924Z,-0.18
2024-01-15T15:18:45.172Z,-0.26
2024-01-15T15:21:13.014Z,-0.25
2024-01-15T15:23:42.900Z,-0.23
2024-01-15T15:26:10.542Z,-0.27
2024-01-15T15:28:38.327Z,-0.26
2024-01-15T15:31:08.885Z,-0.29
2024-01-15T15:33:36.504Z,-0.25
2024-01-15T15:36:06.442Z,-0.26
2024-01-15T15:38:34.277Z,-0.23
2024-01-15T15:41:01.935Z,-0.29
2024-01-15T15:43:29.453Z,-0.26
2024-01-15T15:45:57.518Z,-0.30
2024-01-15T15:48:25.180Z,-0.30
2024-01-15T15:50:53.008Z,-0.22
2024-01-15T15:53:21.449Z,-0.19
2024-01-15T15:55:48.388Z,-0.35
2024-01-15T15:58:15.295Z,-0.43
2024-01-15T16:00:42.413Z,-0.40
2024-01-15T16:03:09.434Z,-0.36
2024-01-15T16:05:42.448Z,-0.41
2024-01-15T16:08:16.616Z,-0.44
2024-01-15T16:10:43.659Z,-0.37
2024-01-15T16:13:10.518Z,-0.30
2024-01-15T16:15:37.543Z,-0.28
2024-01-15T16:23:18.688Z,-0.53
2024-01-15T16:23:33.110Z,-0.75
2024-01-15T16:24:07.340Z,-0.98
2024-01-15T16:26:25.588Z,-1.02
2024-01-15T16:28:53.148Z,-1.09
2024-01-15T16:31:20.919Z,-1.07
2024-01-15T16:33:52.525Z,-1.22
2024-01-15T16:36:22.453Z,-1.19
2024-01-15T16:38:49.427Z,-1.11
2024-01-15T16:41:16.566Z,-1.07
2024-01-15T16:43:43.534Z,-1.16
2024-01-15T16:46:11.196Z,-1.25
2024-01-15T16:48:38.107Z,-1.13
2024-01-15T16:51:05.098Z,-1.13
2024-01-15T16:53:31.998Z,-1.17
2024-01-15T16:55:58.933Z,-1.18
2024-01-15T16:58:25.851Z,-1.12
2024-01-15T17:00:52.763Z,-1.11
2024-01-15T17:03:19.795Z,-1.11
2024-01-15T17:05:46.794Z,-1.02
2024-01-15T17:08:13.848Z,-1.05
2024-01-15T17:10:41.780Z,-1.02
2024-01-15T17:13:09.204Z,-1.03
2024-01-15T17:15:36.112Z,-1.13
2024-01-15T17:18:04.648Z,-1.05
2024-01-15T17:20:31.808Z,-0.97
2024-01-15T17:22:59.734Z,-0.97
2024-01-15T17:25:26.689Z,-1.02
2024-01-15T17:27:53.571Z,-1.02
2024-01-15T17:30:20.595Z,-1.05
2024-01-15T17:32:47.642Z,-1.01
2024-01-15T17:35:14.652Z,-1.05
2024-01-15T17:37:41.608Z,-1.07
2024-01-15T17:40:09.238Z,-1.05
2024-01-15T17:42:36.126Z,-1.06
2024-01-15T17:45:04.928Z,-1.02
2024-01-15T17:47:31.898Z,-1.00
2024-01-15T17:49:59.007Z,-1.06
2024-01-15T17:52:26.030Z,-1.04
2024-01-15T17:54:53.295Z,-1.05
2024-01-15T17:57:20.225Z,-1.20
2024-01-15T17:59:47.168Z,-1.22
2024-01-15T18:02:14.069Z,-1.21
2024-01-15T18:04:41.147Z,-1.26
2024-01-15T18:07:08.783Z,-1.31
2024-01-15T18:09:35.663Z,-1.31
2024-01-15T18:12:02.904Z,-1.35
2024-01-15T18:14:30.477Z,-1.27
2024-01-15T18:16:58.424Z,-1.29
2024-01-15T18:19:26.043Z,-1.30
2024-01-15T18:21:53.483Z,-1.25
2024-01-15T18:24:20.410Z,-1.33
2024-01-15T18:26:49.553Z,-1.33
2024-01-15T18:29:17.550Z,-1.31
2024-01-15T18:31:44.466Z,-1.39
2024-01-15T18:34:15.508Z,-1.29
2024-01-15T18:36:46.794Z,-1.29
2024-01-15T18:39:16.623Z,-1.28
2024-01-15T18:41:45.179Z,-1.29
2024-01-15T18:44:12.348Z,-1.38
2024-01-15T18:46:39.899Z,-1.25
2024-01-15T18:49:06.974Z,-1.33
2024-01-15T18:51:33.988Z,-1.39
2024-01-15T18:54:00.872Z,-1.31
2024-01-15T18:56:27.759Z,-1.25
2024-01-15T18:58:54.641Z,-1.40
2024-01-15T19:01:31.994Z,-1.43
2024-01-15T19:03:59.974Z,-1.31
2024-01-15T19:06:28.393Z,-1.44
2024-01-15T19:08:55.538Z,-1.45
2024-01-15T19:11:27.452Z,-1.44
2024-01-15T19:13:54.551Z,-1.51
2024-01-15T19:16:24.635Z,-1.61
2024-01-15T19:18:54.574Z,-1.65
2024-01-15T19:21:21.690Z,-1.59
2024-01-15T19:23:48.640Z,-1.70
2024-01-15T19:26:22.754Z,-1.59
2024-01-15T19:28:50.036Z,-1.57
2024-01-15T19:31:18.277Z,-1.78
2024-01-15T19:33:45.230Z,-1.68
2024-01-15T19:36:26.297Z,-1.57
2024-01-15T19:38:54.363Z,-1.53
2024-01-15T19:41:22.603Z,-1.50
2024-01-15T19:43:49.889Z,-1.80
2024-01-15T19:46:16.985Z,-1.71
2024-01-15T19:48:44.192Z,-1.72
2024-01-15T19:51:13.128Z,-1.71
2024-01-15T19:53:42.391Z,-1.57
2024-01-15T19:56:09.423Z,-1.60
2024-01-15T19:58:38.656Z,-1.62
2024-01-15T20:01:06.421Z,-1.84
2024-01-15T20:03:33.740Z,-1.86
2024-01-15T20:06:00.972Z,-1.79
2024-01-15T20:08:28.119Z,-1.78
2024-01-15T20:10:55.210Z,-1.87
2024-01-15T20:13:22.041Z,-1.73
2024-01-15T20:15:48.942Z,-1.62
2024-01-15T20:18:16.142Z,-1.57
2024-01-15T20:20:43.391Z,-1.59
2024-01-15T20:23:10.871Z,-1.65
2024-01-15T20:25:38.506Z,-1.72
2024-01-15T20:28:07.931Z,-1.56
2024-01-15T20:30:35.092Z,-1.55
2024-01-15T20:33:02.750Z,-1.58
2024-01-15T20:35:30.165Z,-1.52
2024-01-15T20:37:58.895Z,-1.58
2024-01-15T20:40:25.959Z,-1.63
2024-01-15T20:42:53.093Z,-1.57
2024-01-15T20:45:20.289Z,-1.58
2024-01-15T20:47:47.269Z,-1.59
2024-01-15T20:50:14.419Z,-1.57
2024-01-15T20:52:42.109Z,-1.60
2024-01-15T20:55:09.998Z,-1.54
2024-01-15T20:57:37.288Z,-1.60
2024-01-15T21:00:05.797Z,-1.71
2024-01-15T21:02:32.724Z,-1.68
2024-01-15T21:04:59.846Z,-1.66
2024-01-15T21:07:29.183Z,-1.57
2024-01-15T21:09:56.254Z,-1.72
2024-01-15T21:12:23.271Z,-1.83
2024-01-15T21:14:50.371Z,-1.77
2024-01-15T21:17:17.330Z,-1.79
2024-01-15T21:19:44.665Z,-1.87
2024-01-15T21:22:11.576Z,-1.83
2024-01-15T21:24:38.565Z,-1.77
2024-01-15T21:27:05.713Z,-1.77
2024-01-15T21:29:32.664Z,-1.77
2024-01-15T21:31:59.828Z,-1.70
2024-01-15T21:34:27.003Z,-1.71
2024-01-15T21:36:53.913Z,-1.63
2024-01-15T21:39:21.363Z,-1.63
2024-01-15T21:41:48.505Z,-1.60
2024-01-15T21:44:15.450Z,-1.63
2024-01-15T21:46:42.505Z,-1.63
2024-01-15T21:49:09.807Z,-1.66
2024-01-15T21:51:36.815Z,-1.66
2024-01-15T21:54:03.740Z,-1.55
2024-01-15T21:56:30.708Z,-1.55
2024-01-15T21:58:57.626Z,-1.65
2024-01-15T22:01:25.551Z,-1.58
2024-01-15T22:03:53.947Z,-1.54
2024-01-15T22:06:21.457Z,-1.58
2024-01-15T22:08:50.107Z,-1.66
2024-01-15T22:11:17.140Z,-1.61
2024-01-15T22:13:44.146Z,-1.55
2024-01-15T22:16:11.306Z,-1.56
2024-01-15T22:18:38.388Z,-1.65
2024-01-15T22:21:06.440Z,-1.61
2024-01-15T22:23:33.402Z,-1.56
2024-01-15T22:26:00.537Z,-1.54
2024-01-15T22:28:27.714Z,-1.67
2024-01-15T22:30:54.613Z,-1.65
2024-01-15T22:33:21.687Z,-1.62
2024-01-15T22:35:48.712Z,-1.51
2024-01-15T22:38:15.762Z,-1.46
2024-01-15T22:40:42.751Z,-1.52
2024-01-15T22:43:09.898Z,-1.44
2024-01-15T22:45:37.041Z,-1.55
2024-01-15T22:48:04.360Z,-1.56
2024-01-15T22:50:31.535Z,-1.58
2024-01-15T22:52:58.470Z,-1.56
2024-01-15T22:55:25.701Z,-1.53
2024-01-15T22:57:53.219Z,-1.51
2024-01-15T23:00:20.585Z,-1.52
2024-01-15T23:02:48.454Z,-1.41
2024-01-15T23:05:16.007Z,-1.44
2024-01-15T23:07:43.303Z,-1.44
2024-01-15T23:10:10.200Z,-1.38
2024-01-15T23:12:37.953Z,-1.41
2024-01-15T23:15:05.760Z,-1.54
2024-01-15T23:17:32.736Z,-1.45
2024-01-15T23:19:59.627Z,-1.51
2024-01-15T23:22:26.484Z,-1.33
2024-01-15T23:24:53.374Z,-1.26
2024-01-15T23:27:20.194Z,-1.23
2024-01-15T23:29:47.156Z,-1.23
2024-01-15T23:32:14.083Z,-1.21
2024-01-15T23:34:41.143Z,-1.19
2024-01-15T23:37:08.405Z,-1.12
2024-01-15T23:39:35.280Z,-1.15
2024-01-15T23:42:03.311Z,-1.12
2024-01-15T23:44:30.614Z,-1.12
2024-01-15T23:46:57.641Z,-1.13
2024-01-15T23:49:24.784Z,-1.13
2024-01-15T23:51:51.645Z,-1.14
2024-01-15T23:54:19.078Z,-1.18
2024-01-15T23:56:46.020Z,-1.18
2024-01-15T23:59:13.380Z,-1.15
